Latest Weather Observations for Ballarat

IDV60801

Issued at 7:32 pm EST Sunday 20 August 2017 (issued every 30 minutes, with the page automatically refreshed every 10 minutes)

About weather observations | Map of weather stations | Latest weather observations for VIC | Other Formats
Station Details ID: 089002 Name: BALLARAT AERODROME Lat: -37.51 Lon: 143.79 Height: 435.2 m
Data from the previous 72 hours. | See also: Recent months at Ballarat
Date/Time
EST
Temp
°C
App
Temp
°C
Dew
Point
°C
Rel
Hum
%
Delta-T
°C
Wind Press
QNH
hPa
Press
MSL
hPa
Rain since
9am
mm
Dir  Spd
km/h
Gust
km/h
Spd
kts
Gust
kts
20/07:30pm 5.0 2.2 3.0 87 0.8 NE 7 11 4 6 1018.7 1019.3 0.0
20/07:00pm 5.3 2.0 2.7 83 1.1 NNE 9 13 5 7 1019.0 1019.7 0.0
20/06:30pm 5.1 1.9 2.8 85 1.0 N 9 11 5 6 1019.4 1020.1 0.0
20/06:00pm 5.7 2.1 2.7 81 1.3 N 11 13 6 7 1019.2 1019.9 0.0
20/05:30pm 6.2 2.2 2.7 78 1.5 NNW 13 17 7 9 1019.3 1020.0 0.0
20/05:00pm 6.8 2.6 1.9 71 2.0 NNW 13 17 7 9 1019.5 1020.2 0.0
20/04:30pm 7.5 2.1 1.4 65 2.5 NNW 19 24 10 13 1019.4 1020.1 0.0
20/04:00pm 8.5 3.5 1.2 60 3.0 N 17 22 9 12 1019.5 1020.2 0.0
20/03:30pm 8.7 3.7 1.1 59 3.2 N 17 22 9 12 1019.7 1020.4 0.0
20/03:00pm 9.7 4.3 1.4 56 3.5 N 19 26 10 14 1019.8 1020.5 0.0
20/02:30pm 9.1 4.4 0.8 56 3.5 NNW 15 22 8 12 1020.3 1021.0 0.0
20/02:00pm 9.4 5.9 1.1 56 3.5 NNE 9 17 5 9 1021.0 1021.7 0.0
20/01:30pm 8.7 4.7 0.2 55 3.5 NNE 11 13 6 7 1021.7 1022.4 0.0
20/01:00pm 8.6 4.6 0.6 57 3.3 NNE 11 19 6 10 1022.4 1023.1 0.0
20/12:30pm 8.4 4.0 0.1 56 3.4 NNW 13 20 7 11 1023.3 1024.0 0.0
20/12:00pm 7.8 3.3 -0.2 57 3.2 NNW 13 17 7 9 1023.8 1024.5 0.0
20/11:30am 7.9 3.9 0.2 58 3.1 N 11 17 6 9 1024.4 1025.1 0.0
20/11:00am 7.2 3.8 1.7 68 2.3 N 9 13 5 7 1024.9 1025.7 0.0
20/10:30am 6.5 3.5 2.0 73 1.9 NE 7 11 4 6 1025.2 1026.0 0.0
20/10:00am 4.3 3.0 4.3 100 0.0 CALM 0 0 0 0 1025.5 1026.2 0.0
20/09:30am 3.4 1.6 3.4 100 0.0 ENE 2 7 1 4 1025.9 1026.6 0.0
20/09:23am 3.3 1.9 3.3 100 0.0 CALM 0 0 0 0 1025.9 1026.6 0.0
20/09:13am 2.2 0.6 2.2 100 0.0 CALM 0 0 0 0 1026.0 1026.7 0.0
20/09:00am 1.6 -0.1 1.6 100 0.0 CALM 0 4 0 2 1026.2 1026.9 0.8
20/08:30am -0.6 -3.4 -0.6 100 0.0 ESE 4 6 2 3 1026.5 1027.2 0.6
20/08:00am -2.2 -4.5 -2.2 100 0.0 CALM 0 6 0 3 1026.6 1027.4 0.4
20/07:30am -3.2 -5.6 -3.2 100 0.0 CALM 0 0 0 0 1026.4 1027.1 0.4
20/07:00am -3.3 -6.9 -3.3 100 0.0 SE 6 7 3 4 1026.0 1026.7 0.4
20/06:30am -2.8 -5.2 -2.8 100 0.0 CALM 0 0 0 0 1026.2 1026.9 0.4
20/06:00am -3.1 -6.6 -3.1 100 0.0 ESE 6 7 3 4 1026.0 1026.7 0.4
20/05:30am -2.9 -7.0 -2.9 100 0.0 E 9 11 5 6 1025.8 1026.5 0.4
20/05:00am -2.8 -5.2 -2.8 100 0.0 CALM 0 0 0 0 1026.2 1026.9 0.4
20/04:30am -3.1 -5.5 -3.1 100 0.0 CALM 0 0 0 0 1026.2 1026.9 0.4
20/04:00am -2.9 -5.3 -2.9 100 0.0 CALM 0 0 0 0 1026.0 1026.7 0.4
20/03:30am -2.5 -4.8 -2.5 100 0.0 CALM 0 0 0 0 1025.9 1026.6 0.4
20/03:00am -2.1 -5.1 -2.1 100 0.0 NE 4 7 2 4 1026.1 1026.8 0.4
20/02:30am -2.1 -4.4 -2.1 100 0.0 CALM 0 0 0 0 1026.1 1026.8 0.4
20/02:00am -2.2 -4.5 -2.2 100 0.0 CALM 0 0 0 0 1026.3 1027.0 0.4
20/01:41am -2.5 -5.2 -2.5 100 0.0 SSE 2 7 1 4 1026.1 1026.8 0.4
20/01:30am -2.4 -5.1 -2.4 100 0.0 SSW 2 7 1 4 1026.3 1027.0 0.4
20/01:00am -0.9 -3.4 -0.9 100 0.0 SW 2 11 1 6 1026.3 1027.0 0.4
20/12:35am -0.4 -2.4 -0.4 100 0.0 CALM 0 0 0 0 1026.4 1027.1 0.4
20/12:30am -0.5 -2.6 -0.5 100 0.0 CALM 0 0 0 0 1026.3 1027.0 0.4
20/12:03am -1.5 -5.0 -1.5 100 0.0 ENE 7 7 4 4 1026.6 1027.4 0.4
20/12:00am -1.4 -4.9 -1.4 100 0.0 ENE 7 7 4 4 1026.7 1027.5 0.4
 
Date/Time
EST
Temp
°C
App
Temp
°C
Dew
Point
°C
Rel
Hum
%
Delta-T
°C
Wind Press
QNH
hPa
Press
MSL
hPa
Rain since
9am
mm
Dir  Spd
km/h
Gust
km/h
Spd
kts
Gust
kts
19/11:39pm -1.2 -4.7 -1.2 100 0.0 E 7 9 4 5 1027.2 1028.0 0.4
19/11:38pm -1.3 -4.8 -1.3 100 0.0 E 7 9 4 5 1027.3 1028.1 0.4
19/11:30pm -0.6 -4.0 -0.6 100 0.0 E 7 9 4 5 1027.4 1028.2 0.4
19/11:18pm -0.5 -2.6 -0.5 100 0.0 CALM 0 0 0 0 1027.4 1028.2 0.4
19/11:00pm 0.7 -2.5 0.7 100 0.0 WSW 7 9 4 5 1027.6 1028.4 0.4
19/10:30pm 1.4 -2.5 1.4 100 0.0 WSW 11 15 6 8 1027.5 1028.3 0.4
19/10:00pm 1.9 0.2 1.9 100 0.0 CALM 0 0 0 0 1027.1 1027.9 0.4
19/09:30pm 2.0 -1.8 1.9 99 0.0 ESE 11 13 6 7 1026.5 1027.2 0.4
19/09:00pm 1.8 -2.0 1.7 99 0.0 SE 11 13 6 7 1026.9 1027.7 0.4
19/08:30pm 2.1 -1.7 2.0 99 0.0 S 11 11 6 6 1026.9 1027.7 0.4
19/08:00pm 2.9 -0.3 2.8 99 0.0 S 9 11 5 6 1027.0 1027.8 0.4
19/07:30pm 3.4 0.2 3.3 99 0.0 S 9 11 5 6 1026.9 1027.7 0.4
19/07:00pm 3.7 0.2 3.4 98 0.1 S 11 13 6 7 1026.7 1027.5 0.4
19/06:30pm 4.1 0.3 3.8 98 0.1 S 13 19 7 10 1026.6 1027.4 0.4
19/06:00pm 5.6 2.4 4.9 95 0.3 S 11 13 6 7 1026.6 1027.4 0.4
19/05:30pm 5.6 2.7 4.6 93 0.4 SSW 9 15 5 8 1026.6 1027.4 0.4
19/05:00pm 5.3 0.8 4.1 92 0.5 SW 17 28 9 15 1026.5 1027.2 0.4
19/04:30pm 6.4 3.5 4.6 88 0.8 SSE 9 15 5 8 1026.2 1026.9 0.2
19/04:00pm 7.5 3.1 2.6 71 2.1 SSW 15 35 8 19 1026.0 1026.7 0.0
19/03:30pm 7.4 2.9 2.3 70 2.2 SSW 15 20 8 11 1025.9 1026.6 0.0
19/03:00pm 8.0 4.1 3.5 73 2.0 SSW 13 19 7 10 1026.0 1026.7 0.0
19/02:30pm 7.4 2.1 2.1 69 2.2 SSW 19 26 10 14 1026.0 1026.7 0.0
19/02:00pm 8.1 2.2 1.5 63 2.8 SSW 22 30 12 16 1025.9 1026.6 0.0
19/01:30pm 8.2 2.6 1.1 61 3.0 S 20 26 11 14 1025.8 1026.5 0.0
19/01:00pm 8.1 2.9 0.3 58 3.2 SSW 17 26 9 14 1026.2 1026.9 0.0
19/12:30pm 8.3 3.0 2.8 68 2.4 S 20 28 11 15 1026.2 1026.9 0.0
19/12:00pm 8.4 2.4 3.1 69 2.3 S 24 32 13 17 1026.3 1027.0 0.0
19/11:30am 8.3 2.2 3.0 69 2.3 S 24 33 13 18 1026.2 1026.9 0.0
19/11:00am 7.2 2.1 3.1 75 1.8 SSW 19 32 10 17 1026.3 1027.0 0.0
19/10:30am 6.7 2.6 4.4 85 1.0 SSW 15 22 8 12 1026.2 1026.9 0.0
19/10:00am 5.6 0.8 4.9 95 0.3 SSW 19 30 10 16 1026.1 1026.8 0.0
19/09:44am 5.6 1.3 5.3 98 0.1 SSW 17 24 9 13 1026.0 1026.7 0.0
19/09:30am 5.0 0.6 4.7 98 0.1 SSW 17 24 9 13 1026.0 1026.7 0.0
19/09:08am 4.3 -0.2 4.2 99 0.0 SW 17 22 9 12 1025.9 1026.6 0.0
19/09:00am 3.9 -0.7 3.8 99 0.0 SW 17 22 9 12 1025.8 1026.5 3.4
19/08:49am 4.0 -0.2 3.9 99 0.0 SW 15 20 8 11 1025.7 1026.4 3.4
19/08:30am 3.5 -0.4 3.5 100 0.0 SSW 13 24 7 13 1025.3 1026.1 3.4
19/08:22am 3.1 -0.5 3.1 100 0.0 SSW 11 24 6 13 1025.3 1026.1 3.4
19/08:00am 2.4 -1.7 2.4 100 0.0 SSW 13 17 7 9 1025.0 1025.8 3.4
19/07:30am 1.8 -1.6 1.8 100 0.0 SW 9 13 5 7 1024.5 1025.2 3.4
19/07:04am 1.7 -1.3 1.7 100 0.0 SSW 7 11 4 6 1023.9 1024.6 3.4
19/07:00am 1.7 -1.3 1.7 100 0.0 SSW 7 11 4 6 1024.0 1024.7 3.4
19/06:30am 1.7 -1.3 1.7 100 0.0 SSW 7 11 4 6 1023.7 1024.4 3.4
19/06:25am 1.6 -1.8 1.6 100 0.0 S 9 13 5 7 1023.6 1024.3 3.4
19/06:00am 1.5 -2.0 1.4 99 0.0 SSW 9 15 5 8 1023.1 1023.8 3.4
19/05:30am 1.6 -2.6 1.6 100 0.0 S 13 17 7 9 1022.5 1023.2 3.4
19/05:00am 1.8 -1.6 1.8 100 0.0 SSW 9 13 5 7 1022.2 1022.9 3.4
19/04:32am 2.2 -2.3 2.2 100 0.0 SW 15 22 8 12 1022.2 1022.9 3.4
19/04:30am 2.1 -2.0 2.1 100 0.0 SW 13 20 7 11 1022.1 1022.8 3.4
19/04:00am 1.9 -1.5 1.9 100 0.0 SSW 9 13 5 7 1021.8 1022.5 3.4
19/03:42am 2.1 -1.6 2.1 100 0.0 SW 11 15 6 8 1021.8 1022.5 3.4
19/03:30am 1.9 -1.9 1.9 100 0.0 SW 11 15 6 8 1021.7 1022.4 3.4
19/03:00am 2.1 -1.3 2.1 100 0.0 SSW 9 13 5 7 1021.4 1022.1 3.4
19/02:30am 2.3 -1.0 2.3 100 0.0 SW 9 15 5 8 1021.4 1022.1 3.4
19/02:00am 2.2 -1.1 2.2 100 0.0 SW 9 13 5 7 1021.4 1022.1 3.4
19/01:30am 2.4 -0.9 2.4 100 0.0 SW 9 13 5 7 1021.2 1021.9 3.4
19/01:00am 2.5 -1.2 2.5 100 0.0 WSW 11 17 6 9 1021.0 1021.7 3.4
19/12:30am 2.9 -1.1 2.9 100 0.0 WSW 13 17 7 9 1020.9 1021.6 3.4
19/12:00am 3.1 -0.5 3.1 100 0.0 SW 11 17 6 9 1020.8 1021.5 3.0
 
Date/Time
EST
Temp
°C
App
Temp
°C
Dew
Point
°C
Rel
Hum
%
Delta-T
°C
Wind Press
QNH
hPa
Press
MSL
hPa
Rain since
9am
mm
Dir  Spd
km/h
Gust
km/h
Spd
kts
Gust
kts
18/11:30pm 3.0 -0.6 3.0 100 0.0 SW 11 15 6 8 1020.7 1021.3 3.0
18/11:15pm 3.1 -1.2 3.1 100 0.0 WSW 15 20 8 11 1020.7 1021.3 3.0
18/11:00pm 3.2 -1.5 3.2 100 0.0 WSW 17 24 9 13 1020.4 1021.1 3.0
18/10:30pm 3.4 -1.6 3.4 100 0.0 WSW 19 26 10 14 1020.4 1021.1 3.0
18/10:11pm 3.5 -1.2 3.4 99 0.0 WSW 17 20 9 11 1020.2 1020.9 3.0
18/10:00pm 3.6 -0.7 3.5 99 0.0 WSW 15 22 8 12 1020.1 1020.8 3.0
18/09:30pm 3.5 -0.4 3.4 99 0.0 WSW 13 17 7 9 1019.8 1020.5 3.0
18/09:00pm 3.9 0.1 3.8 99 0.0 SW 13 19 7 10 1019.6 1020.3 3.0
18/08:46pm 4.2 0.1 4.1 99 0.0 SW 15 20 8 11 1019.4 1020.1 3.0
18/08:30pm 4.3 0.6 4.3 100 0.0 WSW 13 20 7 11 1019.2 1019.9 3.0
18/08:21pm 4.2 0.5 4.2 100 0.0 WSW 13 22 7 12 1019.2 1019.9 3.0
18/08:00pm 3.9 0.9 3.9 100 0.0 WSW 9 11 5 6 1018.9 1019.6 3.0
18/07:30pm 4.0 1.3 3.9 99 0.0 WSW 7 11 4 6 1018.5 1019.1 3.0
18/07:00pm 4.1 0.3 4.0 99 0.0 WSW 13 15 7 8 1017.9 1018.6 3.0
18/06:30pm 4.6 0.5 4.5 99 0.0 WSW 15 24 8 13 1017.3 1018.0 3.0
18/06:00pm 4.7 1.0 4.4 98 0.1 SW 13 19 7 10 1017.0 1017.7 3.0
18/05:30pm 4.9 0.1 4.6 98 0.1 WSW 19 35 10 19 1016.2 1016.8 3.0
18/05:00pm 5.7 0.5 5.4 98 0.1 WSW 22 32 12 17 1016.0 1016.6 3.0
18/04:30pm 5.9 0.2 5.0 94 0.4 WSW 24 37 13 20 1015.1 1015.8 3.0
18/04:04pm 5.3 -2.1 5.0 98 0.1 WSW 33 52 18 28 1014.9 1015.6 3.0
18/04:00pm 5.1 -3.1 4.8 98 0.1 WSW 37 52 20 28 1014.9 1015.6 3.0
18/03:49pm 5.8 -0.5 5.5 98 0.1 WSW 28 46 15 25 1014.8 1015.4 2.8
18/03:30pm 5.3 0.0 5.0 98 0.1 WSW 22 33 12 18 1014.4 1015.0 2.8
18/03:00pm 4.9 -1.6 4.6 98 0.1 WSW 28 46 15 25 1014.2 1014.8 2.8
18/02:50pm 4.7 -1.9 4.4 98 0.1 SW 28 46 15 25 1014.0 1014.6 2.6
18/02:48pm 4.7 -1.9 4.4 98 0.1 SW 28 46 15 25 1014.1 1014.7 2.6
18/02:37pm 4.8 -2.5 4.5 98 0.1 SW 32 46 17 25 1013.9 1014.5 2.2
18/02:30pm 5.2 -3.1 4.3 94 0.4 SW 37 57 20 31 1013.8 1014.4 1.8
18/02:19pm 6.6 -1.2 4.8 88 0.8 WSW 35 54 19 29 1013.3 1013.9 1.6
18/02:00pm 7.0 -0.7 5.3 89 0.8 WSW 35 46 19 25 1012.7 1013.3 1.6
18/01:30pm 6.7 -1.2 4.5 86 1.0 WSW 35 54 19 29 1012.6 1013.2 1.0
18/01:00pm 7.1 -0.7 4.9 86 1.0 WSW 35 46 19 25 1012.4 1013.0 1.0
18/12:44pm 6.1 -1.9 5.7 97 0.2 WSW 37 56 20 30 1012.4 1013.0 1.0
18/12:30pm 6.7 -1.4 5.3 91 0.6 WSW 37 48 20 26 1012.1 1012.7 1.0
18/12:16pm 7.5 0.0 6.1 91 0.7 WSW 35 54 19 29 1012.2 1012.8 1.0
18/12:00pm 6.9 -0.5 6.6 98 0.1 W 35 48 19 26 1012.0 1012.6 1.0
18/11:30am 6.2 -1.8 5.9 98 0.1 W 37 54 20 29 1011.7 1012.3 0.8
18/11:08am 6.6 -1.3 6.2 97 0.2 WSW 37 56 20 30 1011.5 1012.1 0.8
18/11:00am 6.4 -1.5 6.1 98 0.1 W 37 52 20 28 1011.5 1012.1 0.8
18/10:46am 6.6 -0.3 6.3 98 0.1 W 32 50 17 27 1011.2 1011.8 0.6
18/10:43am 6.4 -0.6 6.1 98 0.1 WSW 32 50 17 27 1011.2 1011.8 0.6
18/10:30am 5.9 -1.7 5.8 99 0.0 W 35 50 19 27 1011.0 1011.5 0.6
18/10:25am 5.5 -2.2 5.4 99 0.0 W 35 56 19 30 1011.0 1011.5 0.6
18/10:18am 5.1 -3.1 5.0 99 0.0 W 37 56 20 30 1010.7 1011.3 0.6
18/10:00am 5.2 -2.6 4.9 98 0.1 W 35 52 19 28 1010.3 1010.9 0.2
18/09:57am 5.2 -2.6 4.9 98 0.1 W 35 52 19 28 1010.2 1010.8 0.2
18/09:30am 5.3 -0.3 5.2 99 0.0 W 24 33 13 18 1010.4 1011.0 0.0
18/09:00am 4.6 -1.2 4.3 98 0.1 W 24 39 13 21 1010.1 1010.7 6.6
18/08:30am 4.8 -1.7 4.5 98 0.1 W 28 35 15 19 1009.8 1010.4 6.4
18/08:14am 4.8 -0.6 4.7 99 0.0 W 22 32 12 17 1009.4 1010.0 6.4
18/08:04am 4.2 -0.7 4.1 99 0.0 W 19 26 10 14 1009.3 1009.9 6.4
18/08:02am 4.2 -0.7 4.1 99 0.0 W 19 26 10 14 1009.3 1009.9 6.4
18/08:00am 4.1 -0.8 4.0 99 0.0 WSW 19 26 10 14 1009.2 1009.8 6.4
18/07:51am 4.1 -1.1 3.8 98 0.1 WSW 20 32 11 17 1009.2 1009.8 6.4
18/07:30am 4.0 -2.7 3.7 98 0.1 W 28 35 15 19 1008.9 1009.4 6.4
18/07:00am 3.9 -2.8 3.6 98 0.1 W 28 37 15 20 1008.1 1008.7 6.4
18/06:57am 3.9 -2.8 3.6 98 0.1 W 28 41 15 22 1008.1 1008.7 6.4
18/06:35am 4.1 -3.0 3.8 98 0.1 W 30 39 16 21 1007.8 1008.4 6.4
18/06:30am 4.1 -2.6 3.8 98 0.1 W 28 39 15 21 1007.6 1008.2 6.4
18/06:00am 4.1 -2.2 3.8 98 0.1 W 26 39 14 21 1007.3 1007.9 6.4
18/05:30am 4.5 -2.1 4.2 98 0.1 W 28 44 15 24 1006.8 1007.3 6.4
18/05:00am 4.4 -3.5 4.1 98 0.1 W 35 57 19 31 1006.4 1006.9 6.4
18/04:50am 4.4 -2.2 4.1 98 0.1 W 28 54 15 29 1006.3 1006.8 6.4
18/04:44am 4.3 -1.6 4.0 98 0.1 WNW 24 33 13 18 1006.2 1006.7 6.4
18/04:34am 4.4 -2.2 4.1 98 0.1 WNW 28 41 15 22 1005.8 1006.4 6.2
18/04:30am 4.5 -2.1 4.2 98 0.1 WNW 28 41 15 22 1005.8 1006.4 5.8
18/04:05am 4.3 -2.7 4.0 98 0.1 WNW 30 48 16 26 1005.6 1006.2 5.8
18/04:00am 4.3 -2.7 4.0 98 0.1 WNW 30 41 16 22 1005.5 1006.1 5.8
18/03:30am 4.6 -2.4 4.3 98 0.1 WNW 30 39 16 21 1005.0 1005.5 5.8
18/03:14am 4.6 -2.7 4.3 98 0.1 WNW 32 50 17 27 1005.0 1005.5 5.8
18/03:00am 4.3 -2.7 4.0 98 0.1 WNW 30 39 16 21 1005.0 1005.5 5.8
18/02:30am 4.2 -2.5 3.9 98 0.1 WNW 28 37 15 20 1004.8 1005.3 5.8
18/02:00am 4.5 -1.0 4.2 98 0.1 NW 22 30 12 16 1004.8 1005.3 5.8
18/01:30am 4.1 -1.1 3.8 98 0.1 NW 20 30 11 16 1004.8 1005.3 5.6
18/01:00am 3.7 -1.3 3.4 98 0.1 NW 19 20 10 11 1004.8 1005.3 5.6
18/12:30am 4.4 -0.5 4.3 99 0.0 NW 19 30 10 16 1004.8 1005.3 5.6
18/12:00am 4.7 1.0 4.4 98 0.1 W 13 22 7 12 1004.9 1005.4 5.4
 
Date/Time
EST
Temp
°C
App
Temp
°C
Dew
Point
°C
Rel
Hum
%
Delta-T
°C
Wind Press
QNH
hPa
Press
MSL
hPa
Rain since
9am
mm
Dir  Spd
km/h
Gust
km/h
Spd
kts
Gust
kts
17/11:30pm 4.6 -0.5 4.3 98 0.1 NW 20 28 11 15 1004.5 1005.0 5.0
17/11:00pm 3.6 -1.6 3.3 98 0.1 NNW 20 26 11 14 1004.5 1005.0 5.0
17/10:30pm 3.9 -1.3 3.8 99 0.0 NW 20 26 11 14 1004.4 1004.9 5.0
17/10:00pm 4.7 -0.3 4.6 99 0.0 NW 20 30 11 16 1004.5 1005.0 5.0
17/09:30pm 5.7 -0.7 5.4 98 0.1 WNW 28 41 15 22 1004.7 1005.2 5.0
17/09:00pm 5.4 0.1 5.1 98 0.1 NW 22 30 12 16 1004.5 1005.0 4.8
17/08:30pm 5.0 0.0 4.7 98 0.1 NW 20 26 11 14 1004.1 1004.6 4.8
17/08:00pm 4.4 -0.7 4.1 98 0.1 NW 20 28 11 15 1004.1 1004.6 4.8

Other Formats:

Comma delimited format used in spreadsheet applications
http://www.bom.gov.au/fwo/IDV60801/IDV60801.94852.axf

JavaScript Object Notation format (JSON) in row-major order
http://www.bom.gov.au/fwo/IDV60801/IDV60801.94852.json